Time;durP1;ratioP1;P1;durP2;ratioP2;P2;SDS_P1;SDS_P2;PMS_P1;PMS_P2;Temp;Humidity;BMP_temperature;BMP_pressure;BME280_temperature;BME280_humidity;BME280_pressure;Samples;Min_cycle;Max_cycle;Signal;HPM_P1;HPM_P2
2022/05/01 00:01:42;;;;;;;39.67;25.80;;;;;;;7.62;100.00;96641.13;5007875;28;20041;-76
2022/05/01 00:04:08;;;;;;;42.83;24.73;;;;;;;7.52;100.00;96651.56;5006887;28;20458;-77
2022/05/01 00:06:33;;;;;;;38.67;24.53;;;;;;;7.67;100.00;96641.56;5022937;28;20680;-75
2022/05/01 00:09:00;;;;;;;39.17;24.90;;;;;;;7.55;100.00;96645.25;5007509;28;20038;-76
2022/05/01 00:11:28;;;;;;;40.57;25.80;;;;;;;7.61;100.00;96638.63;5006188;28;20045;-76
2022/05/01 00:13:54;;;;;;;47.97;27.57;;;;;;;7.60;100.00;96643.03;5005866;28;20463;-77
2022/05/01 00:16:20;;;;;;;42.73;26.43;;;;;;;7.71;100.00;96644.75;5006454;28;20080;-76
2022/05/01 00:18:45;;;;;;;37.60;24.17;;;;;;;7.67;100.00;96641.56;5007107;28;20069;-77
2022/05/01 00:21:12;;;;;;;44.23;25.43;;;;;;;7.60;100.00;96643.03;5006720;28;20038;-76
2022/05/01 00:23:38;;;;;;;42.60;26.33;;;;;;;7.64;100.00;96641.00;5004404;28;20506;-78
2022/05/01 00:26:06;;;;;;;44.17;24.97;;;;;;;7.57;100.00;96646.75;5007405;28;20121;-77
2022/05/01 00:28:36;;;;;;;38.27;23.97;;;;;;;7.53;100.00;96647.97;4998163;28;20165;-76
2022/05/01 00:31:06;;;;;;;45.80;26.20;;;;;;;7.53;100.00;96642.72;5005277;28;20211;-76
2022/05/01 00:36:26;;;;;;;40.07;25.17;;;;;;;7.50;100.00;96644.78;5006185;28;20038;-76
2022/05/01 00:39:03;;;;;;;43.80;26.30;;;;;;;7.61;100.00;96643.88;5004958;28;20065;-76
2022/05/01 00:41:35;;;;;;;40.77;25.47;;;;;;;7.62;100.00;96646.38;4999827;28;20117;-76
2022/05/01 00:44:06;;;;;;;42.00;25.27;;;;;;;7.50;100.00;96636.94;5023075;28;20034;-76
2022/05/01 00:46:33;;;;;;;44.33;25.67;;;;;;;7.58;100.00;96634.50;5024828;28;20046;-77
2022/05/01 00:49:01;;;;;;;38.87;25.73;;;;;;;7.48;100.00;96644.09;5005889;28;20125;-77
2022/05/01 00:51:33;;;;;;;39.37;23.50;;;;;;;7.55;100.00;96645.25;5006034;28;20032;-76
2022/05/01 00:53:59;;;;;;;41.73;26.00;;;;;;;7.54;100.00;96654.03;5020994;28;20120;-77
2022/05/01 00:56:26;;;;;;;40.77;24.37;;;;;;;7.48;100.00;96646.72;5003017;28;20038;-78
2022/05/01 00:58:52;;;;;;;39.67;24.50;;;;;;;7.56;100.00;96647.72;5000314;28;20030;-79
2022/05/01 01:01:19;;;;;;;38.47;24.60;;;;;;;7.55;100.00;96645.25;5004188;28;20120;-77
2022/05/01 01:03:45;;;;;;;41.70;24.83;;;;;;;7.57;100.00;96649.38;5003196;28;20026;-76
2022/05/01 01:06:11;;;;;;;39.43;25.07;;;;;;;7.54;100.00;96643.56;5005540;28;20577;-76
2022/05/01 01:08:39;;;;;;;37.20;24.93;;;;;;;7.48;100.00;96644.94;5005729;28;20053;-77
2022/05/01 01:11:04;;;;;;;38.10;24.90;;;;;;;7.61;100.00;96639.47;5022390;28;20037;-77
2022/05/01 01:13:30;;;;;;;39.10;23.20;;;;;;;7.60;100.00;96637.00;5006085;28;20422;-76
2022/05/01 01:15:57;;;;;;;38.30;24.70;;;;;;;7.59;100.00;96636.16;5001213;28;20030;-76
2022/05/01 01:18:24;;;;;;;34.93;23.20;;;;;;;7.57;100.00;96644.13;5002890;28;20117;-77
2022/05/01 01:20:51;;;;;;;37.93;25.17;;;;;;;7.61;100.00;96642.06;5005644;28;20140;-77
2022/05/01 01:23:17;;;;;;;40.37;25.07;;;;;;;7.61;100.00;96634.22;5021245;28;20114;-77
2022/05/01 01:25:43;;;;;;;45.23;26.13;;;;;;;7.58;100.00;96629.28;5006879;28;20030;-76
2022/05/01 01:28:09;;;;;;;45.50;27.13;;;;;;;7.56;100.00;96633.81;5004617;28;20041;-77
2022/05/01 01:33:26;;;;;;;42.47;24.57;;;;;;;7.51;100.00;96628.13;5004848;28;20563;-78
2022/05/01 01:35:54;;;;;;;43.13;24.70;;;;;;;7.49;100.00;96630.06;5021871;28;20034;-77
2022/05/01 01:38:20;;;;;;;34.97;23.30;;;;;;;7.47;100.00;96627.56;4997375;28;20041;-77
2022/05/01 01:40:52;;;;;;;43.40;24.20;;;;;;;7.39;100.00;96626.56;5006095;28;20034;-77
2022/05/01 01:43:23;;;;;;;41.07;23.57;;;;;;;7.46;100.00;96628.53;5004598;28;20092;-76
2022/05/01 01:45:49;;;;;;;46.67;26.73;;;;;;;7.42;100.00;96627.13;5010231;28;20048;-77
2022/05/01 01:48:17;;;;;;;42.47;23.60;;;;;;;7.51;100.00;96634.22;5008878;28;20109;-77
2022/05/01 01:50:44;;;;;;;42.90;23.83;;;;;;;7.48;100.00;96631.03;5010198;28;20037;-76
2022/05/01 01:53:11;;;;;;;47.83;24.37;;;;;;;7.50;100.00;96627.28;5024497;28;20105;-77
2022/05/01 01:55:38;;;;;;;47.40;25.10;;;;;;;7.39;100.00;96622.16;5008585;28;20045;-77
2022/05/01 01:58:06;;;;;;;37.83;24.13;;;;;;;7.52;100.00;96614.09;5003170;28;20403;-77
2022/05/01 02:00:33;;;;;;;41.57;23.67;;;;;;;7.46;100.00;96620.66;5024781;28;20041;-77
2022/05/01 02:03:00;;;;;;;40.70;25.50;;;;;;;7.43;100.00;96609.63;5010633;28;20042;-77
2022/05/01 02:05:27;;;;;;;39.23;22.57;;;;;;;7.44;100.00;96611.28;5002651;28;20040;-77
2022/05/01 02:07:53;;;;;;;42.57;25.70;;;;;;;7.31;100.00;96607.13;5008557;28;20034;-77
2022/05/01 02:10:20;;;;;;;45.17;25.63;;;;;;;7.38;100.00;96606.56;5005855;28;20057;-77
2022/05/01 02:12:45;;;;;;;46.23;25.37;;;;;;;7.42;100.00;96605.38;5026730;28;20034;-76
2022/05/01 02:15:11;;;;;;;46.23;26.20;;;;;;;7.30;100.00;96605.44;5012969;28;20403;-77
2022/05/01 02:17:41;;;;;;;38.53;24.40;;;;;;;7.37;100.00;96599.69;5011070;28;20048;-76
2022/05/01 02:20:08;;;;;;;41.30;25.33;;;;;;;7.39;100.00;96603.00;5012308;28;20080;-77
2022/05/01 02:22:34;;;;;;;44.50;23.90;;;;;;;7.40;100.00;96597.63;5002648;28;20058;-76
2022/05/01 02:25:01;;;;;;;43.70;25.10;;;;;;;7.45;100.00;96592.03;5011723;28;20033;-76
2022/05/01 02:27:27;;;;;;;40.17;24.67;;;;;;;7.46;100.00;96599.72;5010945;28;20040;-77
2022/05/01 02:29:52;;;;;;;48.20;26.70;;;;;;;7.42;100.00;96592.28;5009943;28;20112;-76
2022/05/01 02:32:18;;;;;;;40.77;25.20;;;;;;;7.44;100.00;96596.41;5011505;28;20038;-77
2022/05/01 02:34:45;;;;;;;46.57;25.63;;;;;;;7.40;100.00;96587.16;5012218;28;20022;-76
2022/05/01 02:37:10;;;;;;;41.43;26.17;;;;;;;7.42;100.00;96592.28;5010771;28;20040;-76
2022/05/01 02:39:36;;;;;;;44.10;25.77;;;;;;;7.43;100.00;96588.69;5012147;28;20030;-77
2022/05/01 02:42:03;;;;;;;43.30;27.73;;;;;;;7.43;100.00;96586.09;5010268;28;20030;-77
2022/05/01 02:44:29;;;;;;;41.97;24.23;;;;;;;7.36;100.00;96582.34;5010742;28;20044;-77
2022/05/01 02:46:55;;;;;;;42.50;25.70;;;;;;;7.37;100.00;96582.19;5008788;28;20026;-77
2022/05/01 02:49:21;;;;;;;45.23;25.90;;;;;;;7.42;100.00;96587.06;4999936;28;20113;-77
2022/05/01 02:51:48;;;;;;;42.27;25.63;;;;;;;7.40;100.00;96581.94;5010315;28;20041;-76
2022/05/01 02:54:14;;;;;;;44.37;27.37;;;;;;;7.35;100.00;96580.69;5008217;28;20811;-76
2022/05/01 02:56:40;;;;;;;46.40;27.53;;;;;;;7.42;100.00;96581.81;5003443;28;20030;-77
2022/05/01 02:59:09;;;;;;;48.37;29.07;;;;;;;7.33;100.00;96581.63;5008480;28;20037;-76
2022/05/01 03:01:38;;;;;;;43.03;26.50;;;;;;;7.38;100.00;96581.25;5004854;28;20045;-77
2022/05/01 03:04:04;;;;;;;44.53;26.90;;;;;;;7.48;100.00;96591.78;5007435;28;20041;-77
2022/05/01 03:06:32;;;;;;;44.87;27.60;;;;;;;7.48;100.00;96589.16;5008356;28;20056;-77
2022/05/01 03:08:58;;;;;;;40.23;24.20;;;;;;;7.39;100.00;96582.91;5008469;28;20029;-78
2022/05/01 03:11:23;;;;;;;40.77;26.33;;;;;;;7.49;100.00;96575.09;5007249;28;20462;-77
2022/05/01 03:13:49;;;;;;;43.40;25.77;;;;;;;7.46;100.00;96578.81;5008440;28;20108;-76
2022/05/01 03:16:15;;;;;;;40.87;25.40;;;;;;;7.48;100.00;96582.13;5007336;28;20018;-77
2022/05/01 03:24:09;;;;;;;43.37;26.50;;;;;;;7.44;100.00;96574.66;5025355;28;20455;-76
2022/05/01 03:26:35;;;;;;;39.17;26.13;;;;;;;7.46;100.00;96573.56;5004925;28;20132;-77
2022/05/01 03:29:01;;;;;;;43.40;25.97;;;;;;;7.44;100.00;96572.03;4989162;28;20125;-77
2022/05/01 03:31:27;;;;;;;46.27;27.40;;;;;;;7.50;100.00;96576.75;4996607;28;20554;-77
2022/05/01 03:33:54;;;;;;;41.93;27.33;;;;;;;7.52;100.00;96573.03;5007484;28;20838;-77
2022/05/01 03:36:20;;;;;;;45.57;27.30;;;;;;;7.55;100.00;96574.56;5001727;28;20053;-77
2022/05/01 03:38:46;;;;;;;41.60;26.17;;;;;;;7.56;100.00;96578.84;5002492;28;20034;-77
2022/05/01 03:41:14;;;;;;;39.97;25.43;;;;;;;7.55;100.00;96569.34;5005160;28;20032;-77
2022/05/01 03:43:40;;;;;;;41.67;26.87;;;;;;;7.52;100.00;96580.06;4999478;28;20338;-76
2022/05/01 03:46:06;;;;;;;43.40;25.50;;;;;;;7.53;100.00;96576.50;5008135;28;20121;-77
2022/05/01 03:48:32;;;;;;;38.93;25.73;;;;;;;7.44;100.00;96579.88;5008126;28;20025;-77
2022/05/01 03:50:58;;;;;;;41.33;26.40;;;;;;;7.43;100.00;96579.06;4998499;28;20038;-77
2022/05/01 03:53:25;;;;;;;40.03;26.03;;;;;;;7.50;100.00;96585.41;5006259;28;20030;-77
2022/05/01 03:55:51;;;;;;;43.73;25.67;;;;;;;7.50;100.00;96589.84;5003339;28;20030;-77
2022/05/01 03:58:18;;;;;;;39.97;25.73;;;;;;;7.55;100.00;96583.25;5007201;28;20037;-77
2022/05/01 04:00:44;;;;;;;41.47;26.47;;;;;;;7.55;100.00;96583.25;5000853;28;20356;-77
2022/05/01 04:03:12;;;;;;;41.90;25.30;;;;;;;7.44;100.00;96583.31;5006282;28;20108;-77
2022/05/01 04:05:38;;;;;;;36.57;24.20;;;;;;;7.57;100.00;96588.34;5007374;28;20037;-77
2022/05/01 04:08:04;;;;;;;37.43;24.80;;;;;;;7.54;100.00;96585.97;5006876;28;20384;-78
2022/05/01 04:10:29;;;;;;;39.93;26.57;;;;;;;7.59;100.00;96591.66;5002924;28;20099;-77
2022/05/01 04:12:55;;;;;;;40.63;25.57;;;;;;;7.54;100.00;96589.47;5006463;28;20395;-77
2022/05/01 04:15:22;;;;;;;42.07;26.10;;;;;;;7.50;100.00;96588.03;5022593;28;20059;-77
2022/05/01 04:17:48;;;;;;;38.53;25.87;;;;;;;7.54;100.00;96586.84;5006305;28;20056;-77
2022/05/01 04:20:16;;;;;;;42.90;26.40;;;;;;;7.60;100.00;96588.09;5006532;28;20037;-77
2022/05/01 04:22:47;;;;;;;41.87;26.93;;;;;;;7.62;100.00;96587.97;5005937;28;20112;-77
2022/05/01 04:25:16;;;;;;;45.17;28.90;;;;;;;7.65;100.00;96582.47;5006581;28;20034;-76
2022/05/01 04:27:44;;;;;;;41.83;27.63;;;;;;;7.63;100.00;96582.59;5007670;28;20034;-77
2022/05/01 04:30:14;;;;;;;38.53;25.70;;;;;;;7.63;100.00;96579.97;5005803;28;20030;-77
2022/05/01 04:33:02;;;;;;;36.77;25.37;;;;;;;7.60;100.00;96585.47;5006180;28;20487;-76
2022/05/01 04:35:37;;;;;;;39.60;25.53;;;;;;;7.61;100.00;96584.50;4998189;28;20037;-77
2022/05/01 04:38:04;;;;;;;41.50;26.87;;;;;;;7.60;100.00;96582.84;4999706;28;20113;-77
2022/05/01 04:40:38;;;;;;;48.00;28.83;;;;;;;7.63;100.00;96590.44;5007559;28;20571;-76
2022/05/01 04:43:06;;;;;;;40.87;25.97;;;;;;;7.70;100.00;96591.56;5005404;28;20120;-76
2022/05/01 04:45:33;;;;;;;41.30;25.83;;;;;;;7.73;100.00;96588.69;5007296;28;20487;-77
2022/05/01 04:48:01;;;;;;;40.00;25.53;;;;;;;7.73;100.00;96583.44;5000694;28;20037;-77
2022/05/01 04:50:27;;;;;;;46.33;26.87;;;;;;;7.76;100.00;96591.03;5005994;28;20040;-77
2022/05/01 04:52:54;;;;;;;44.37;26.97;;;;;;;7.81;100.00;96595.84;5005112;28;20034;-77
2022/05/01 04:55:20;;;;;;;41.03;25.37;;;;;;;7.84;100.00;96594.78;5005429;28;20038;-77
2022/05/01 04:57:45;;;;;;;54.37;32.20;;;;;;;7.76;100.00;96593.66;4989752;28;20104;-77
2022/05/01 05:00:13;;;;;;;49.23;31.63;;;;;;;7.69;100.00;96589.91;5007010;28;20033;-77
2022/05/01 05:02:44;;;;;;;50.73;33.43;;;;;;;7.80;100.00;96602.88;5006788;28;20032;-77
2022/05/01 05:05:11;;;;;;;45.57;29.97;;;;;;;7.75;100.00;96599.03;5006115;28;20033;-77
2022/05/01 05:07:38;;;;;;;47.00;28.27;;;;;;;7.71;100.00;96603.72;5006837;28;20041;-77
2022/05/01 05:10:05;;;;;;;46.33;27.00;;;;;;;7.75;100.00;96599.84;5004133;28;20102;-77
2022/05/01 05:12:32;;;;;;;44.80;25.50;;;;;;;7.86;100.00;96606.78;5014739;28;20022;-77
2022/05/01 05:15:02;;;;;;;46.53;28.67;;;;;;;7.78;100.00;96609.25;5007414;28;20574;-77
2022/05/01 05:17:31;;;;;;;40.60;26.70;;;;;;;7.79;100.00;96606.47;5005731;28;20107;-77
2022/05/01 05:19:57;;;;;;;41.73;26.17;;;;;;;7.90;100.00;96615.19;5008699;28;20531;-78
2022/05/01 05:22:23;;;;;;;43.07;27.10;;;;;;;7.91;100.00;96606.38;5009502;28;20045;-77
2022/05/01 05:24:49;;;;;;;42.80;26.90;;;;;;;7.83;100.00;96607.03;5004591;28;20100;-77
2022/05/01 05:27:15;;;;;;;41.93;26.90;;;;;;;7.90;100.00;96612.56;5026191;28;20033;-77
2022/05/01 05:29:41;;;;;;;45.47;27.70;;;;;;;7.96;100.00;96609.44;5008967;28;20113;-78
2022/05/01 05:32:07;;;;;;;42.97;27.33;;;;;;;8.02;100.00;96608.91;5009272;28;20038;-78
2022/05/01 05:34:33;;;;;;;40.83;24.93;;;;;;;7.99;100.00;96609.16;5025680;28;20034;-78
2022/05/01 05:36:58;;;;;;;38.80;24.77;;;;;;;8.07;100.00;96604.06;5010533;28;20041;-77
2022/05/01 05:39:24;;;;;;;38.10;24.40;;;;;;;8.14;100.00;96614.84;5006715;28;20383;-77
2022/05/01 05:41:50;;;;;;;37.97;25.87;;;;;;;8.06;100.00;96615.53;5009457;28;20092;-77
2022/05/01 05:44:16;;;;;;;39.70;25.13;;;;;;;8.13;100.00;96614.00;5008269;28;20553;-77
2022/05/01 05:46:41;;;;;;;40.47;25.87;;;;;;;8.08;100.00;96620.59;5026014;28;20405;-78
2022/05/01 05:49:07;;;;;;;39.90;24.57;;;;;;;8.09;100.00;96617.06;5010487;28;20034;-77
2022/05/01 05:51:33;;;;;;;44.00;28.37;;;;;;;8.19;100.00;96615.28;5010882;28;20044;-77
2022/05/01 05:53:59;;;;;;;44.00;28.87;;;;;;;8.22;100.00;96622.88;5008686;28;20080;-77
2022/05/01 05:56:24;;;;;;;51.30;35.83;;;;;;;8.27;100.00;96626.72;5010492;28;20061;-77
2022/05/01 05:58:50;;;;;;;40.30;26.73;;;;;;;8.17;100.00;96625.06;5005802;28;20052;-78
2022/05/01 06:01:16;;;;;;;39.50;24.27;;;;;;;8.32;100.00;96622.88;5002831;28;20034;-78
2022/05/01 06:03:43;;;;;;;37.63;24.47;;;;;;;8.26;100.00;96627.69;5009837;28;20088;-78
2022/05/01 06:06:09;;;;;;;33.20;22.53;;;;;;;8.26;100.00;96625.06;5007000;28;20046;-78
2022/05/01 06:08:38;;;;;;;38.53;23.27;;;;;;;8.33;100.00;96627.16;5009055;28;20045;-78
2022/05/01 06:11:04;;;;;;;35.20;24.13;;;;;;;8.36;100.00;96629.50;5009651;28;20030;-77
2022/05/01 06:13:30;;;;;;;36.67;23.23;;;;;;;8.34;100.00;96637.50;5008545;28;20029;-78
2022/05/01 06:15:57;;;;;;;35.33;24.10;;;;;;;8.32;100.00;96638.59;5001706;28;20056;-78
2022/05/01 06:18:22;;;;;;;32.40;22.10;;;;;;;8.48;100.00;96633.69;4992138;28;20049;-78
2022/05/01 06:20:49;;;;;;;32.80;22.53;;;;;;;8.23;100.00;96635.81;5009280;28;20034;-77
2022/05/01 06:23:15;;;;;;;35.80;24.27;;;;;;;8.26;100.00;96638.19;5006955;28;20037;-79
2022/05/01 06:25:46;;;;;;;36.37;22.97;;;;;;;8.33;100.00;96635.03;5002067;28;20029;-78
2022/05/01 06:28:16;;;;;;;34.93;23.30;;;;;;;8.31;100.00;96637.75;5002983;28;20774;-78
2022/05/01 06:30:46;;;;;;;37.80;23.80;;;;;;;8.37;100.00;96637.22;5009098;28;20030;-77
2022/05/01 06:33:14;;;;;;;37.13;23.93;;;;;;;8.51;100.00;96636.03;5004969;28;20710;-78
2022/05/01 06:35:40;;;;;;;35.93;24.87;;;;;;;8.52;100.00;96634.22;5007540;28;20037;-75
2022/05/01 06:38:09;;;;;;;35.27;25.43;;;;;;;8.37;100.00;96645.09;5006685;28;20030;-80
2022/05/01 06:40:38;;;;;;;35.47;23.10;;;;;;;8.36;100.00;96645.22;5025166;28;20746;-79
2022/05/01 06:43:07;;;;;;;37.03;23.87;;;;;;;8.55;100.00;96634.81;5008087;28;20034;-78
2022/05/01 06:45:34;;;;;;;36.60;23.53;;;;;;;8.53;100.00;96641.16;5018458;28;20050;-79
2022/05/01 06:48:01;;;;;;;34.63;22.67;;;;;;;8.59;100.00;96640.59;5018576;28;20030;-77
2022/05/01 06:50:27;;;;;;;34.37;22.00;;;;;;;8.67;100.00;96640.75;5007869;28;20028;-79
2022/05/01 06:52:53;;;;;;;33.67;21.97;;;;;;;8.78;100.00;96634.53;5009820;28;20065;-78
2022/05/01 06:55:19;;;;;;;53.30;36.07;;;;;;;8.73;100.00;96635.78;5003285;28;20073;-78
2022/05/01 06:57:45;;;;;;;35.97;25.70;;;;;;;8.87;100.00;96628.47;5007135;28;20029;-79
2022/05/01 07:00:12;;;;;;;34.53;23.10;;;;;;;9.05;100.00;96626.78;5007110;28;20038;-79
2022/05/01 07:02:48;;;;;;;32.13;21.20;;;;;;;9.23;100.00;96633.94;5005392;28;20033;-79
2022/05/01 07:05:14;;;;;;;35.50;22.50;;;;;;;9.37;100.00;96617.75;4999269;28;20041;-78
2022/05/01 07:07:40;;;;;;;29.17;20.97;;;;;;;9.40;100.00;96620.09;4998863;28;20053;-78
2022/05/01 07:10:07;;;;;;;30.03;21.27;;;;;;;9.65;100.00;96624.69;4998510;28;20030;-78
2022/05/01 07:12:33;;;;;;;29.57;19.90;;;;;;;9.73;100.00;96631.06;4993649;28;20042;-79
2022/05/01 07:14:58;;;;;;;28.57;19.77;;;;;;;9.71;100.00;96633.81;4978416;28;20088;-78
2022/05/01 07:17:24;;;;;;;27.70;19.27;;;;;;;9.76;100.00;96630.72;4991716;28;20084;-78
2022/05/01 07:19:50;;;;;;;30.43;19.27;;;;;;;9.79;100.00;96630.44;4992031;28;20037;-78
2022/05/01 07:22:18;;;;;;;29.03;19.60;;;;;;;9.98;100.00;96625.13;4994961;28;20041;-80
2022/05/01 07:24:44;;;;;;;28.10;20.00;;;;;;;10.28;100.00;96623.19;5008010;28;20120;-79
2022/05/01 07:27:10;;;;;;;31.13;20.70;;;;;;;10.39;100.00;96628.22;4995074;28;20129;-80
2022/05/01 07:29:36;;;;;;;27.33;18.23;;;;;;;10.15;100.00;96629.59;4995158;28;20042;-78
2022/05/01 07:32:01;;;;;;;29.57;20.50;;;;;;;10.39;100.00;96617.72;5013960;28;20555;-78
2022/05/01 07:34:27;;;;;;;27.83;19.33;;;;;;;10.37;100.00;96627.56;4998559;28;20034;-79
2022/05/01 07:36:53;;;;;;;28.47;19.13;;;;;;;10.30;100.00;96623.88;4999713;28;20056;-78
2022/05/01 07:39:19;;;;;;;24.00;17.67;;;;;;;10.34;100.00;96625.22;4994768;28;20065;-78
2022/05/01 07:41:44;;;;;;;25.53;17.23;;;;;;;10.31;100.00;96628.16;5012862;28;20054;-78
2022/05/01 07:44:13;;;;;;;26.73;18.60;;;;;;;10.78;100.00;96615.63;5006469;28;20056;-80
2022/05/01 07:46:40;;;;;;;25.23;17.60;;;;;;;10.86;100.00;96612.22;4996656;28;20042;-78
2022/05/01 07:49:07;;;;;;;24.40;16.27;;;;;;;10.94;100.00;96617.59;4997538;28;20578;-78
2022/05/01 07:51:33;;;;;;;26.67;18.60;;;;;;;10.83;100.00;96620.44;5006405;28;20109;-85
2022/05/01 07:53:59;;;;;;;26.87;17.87;;;;;;;10.96;100.00;96620.88;4997326;28;20165;-79
2022/05/01 07:56:25;;;;;;;23.60;17.03;;;;;;;10.94;100.00;96622.84;5016953;28;20025;-80
2022/05/01 07:58:52;;;;;;;26.53;16.93;;;;;;;10.94;100.00;96622.03;4999845;28;20088;-80
2022/05/01 08:01:17;;;;;;;24.47;17.40;;;;;;;10.81;100.00;96615.34;4995539;28;20044;-79
2022/05/01 08:06:27;;;;;;;23.30;16.13;;;;;;;10.84;100.00;96624.72;4993443;28;20042;-81
2022/05/01 08:08:53;;;;;;;23.47;15.20;;;;;;;11.19;100.00;96620.41;4992540;28;20042;-79
2022/05/01 08:11:19;;;;;;;25.23;17.37;;;;;;;11.17;100.00;96617.94;4993130;28;20030;-79
2022/05/01 08:13:44;;;;;;;21.67;15.53;;;;;;;11.32;100.00;96621.63;4991647;28;20038;-79
2022/05/01 08:16:10;;;;;;;21.77;15.90;;;;;;;11.13;100.00;96623.63;4984958;28;20037;-79
2022/05/01 08:21:21;;;;;;;22.47;15.73;;;;;;;11.20;100.00;96616.78;5004930;28;20125;-80
2022/05/01 08:23:48;;;;;;;24.03;16.87;;;;;;;11.17;100.00;96619.75;4998192;28;20056;-79
2022/05/01 08:26:17;;;;;;;25.70;17.70;;;;;;;10.97;100.00;96621.72;5012009;28;20077;-80
2022/05/01 08:28:44;;;;;;;28.07;20.40;;;;;;;11.02;100.00;96622.91;5001498;28;20034;-79
2022/05/01 08:31:10;;;;;;;26.33;20.00;;;;;;;11.11;100.00;96620.34;5005770;28;20044;-80
2022/05/01 08:33:37;;;;;;;23.90;15.90;;;;;;;11.09;100.00;96623.13;5007843;28;20038;-79
2022/05/01 08:36:06;;;;;;;22.77;16.07;;;;;;;11.11;100.00;96623.81;5022930;28;20033;-79
2022/05/01 08:38:33;;;;;;;24.63;17.43;;;;;;;11.17;100.00;96625.00;5007174;28;20716;-79
2022/05/01 08:40:59;;;;;;;22.77;17.57;;;;;;;11.23;100.00;96621.72;5003293;28;20415;-79
2022/05/01 08:43:26;;;;;;;23.23;16.73;;;;;;;11.41;100.00;96625.16;5004688;28;20427;-79
2022/05/01 08:46:08;;;;;;;25.30;16.77;;;;;;;11.16;100.00;96620.69;5006390;28;20538;-79
2022/05/01 08:48:54;;;;;;;23.27;17.50;;;;;;;11.72;100.00;96619.41;5000548;28;20380;-79
2022/05/01 08:51:21;;;;;;;24.73;16.87;;;;;;;11.48;100.00;96614.84;5007146;28;20057;-79
2022/05/01 08:53:48;;;;;;;22.17;16.70;;;;;;;11.51;100.00;96617.16;5002567;28;20048;-78
2022/05/01 08:56:15;;;;;;;23.30;17.43;;;;;;;11.61;100.00;96609.16;5002312;28;20092;-78
2022/05/01 08:58:41;;;;;;;24.13;17.00;;;;;;;11.57;100.00;96613.91;5005139;28;20030;-79
2022/05/01 09:01:11;;;;;;;22.40;15.87;;;;;;;11.91;100.00;96616.59;5003352;28;20041;-78
2022/05/01 09:03:39;;;;;;;23.63;17.37;;;;;;;11.82;100.00;96606.13;5006346;28;20097;-77
2022/05/01 09:06:05;;;;;;;22.20;15.03;;;;;;;11.95;100.00;96617.09;4990912;28;20034;-79
2022/05/01 09:08:31;;;;;;;20.77;15.60;;;;;;;12.15;100.00;96615.03;5001960;28;20022;-80
2022/05/01 09:12:49;;;;;;;19.77;14.60;;;;;;;12.22;100.00;96618.69;5003569;28;20048;-77
2022/05/01 09:13:44;;;;;;;20.33;14.53;;;;;;;12.68;100.00;96611.22;4999855;28;20558;-78
2022/05/01 09:16:11;;;;;;;22.70;18.30;;;;;;;12.82;100.00;96605.28;4998826;28;20172;-76
2022/05/01 09:19:00;;;;;;;23.70;17.87;;;;;;;13.30;100.00;96602.81;5011561;28;20030;-83
2022/05/01 09:21:50;;;;;;;19.63;15.13;;;;;;;13.75;100.00;96602.22;5002595;28;20687;-78
2022/05/01 09:24:35;;;;;;;19.80;14.67;;;;;;;13.27;100.00;96603.97;4997213;28;20038;-77
2022/05/01 09:27:01;;;;;;;20.30;15.43;;;;;;;13.68;100.00;96596.81;5012432;28;20034;-79
2022/05/01 09:29:32;;;;;;;18.87;14.03;;;;;;;13.52;100.00;96596.84;4995529;28;20479;-79
2022/05/01 09:32:03;;;;;;;16.70;13.00;;;;;;;13.66;96.59;96597.97;5013997;28;20440;-79
2022/05/01 09:34:35;;;;;;;19.13;13.13;;;;;;;13.94;93.13;96598.34;5012166;28;20415;-78
2022/05/01 09:37:17;;;;;;;18.45;14.82;;;;;;;13.70;94.50;96599.25;5013265;28;20034;-79
2022/05/01 09:39:49;;;;;;;18.87;13.17;;;;;;;13.89;93.12;96598.88;4996627;28;20040;-79
2022/05/01 09:42:19;;;;;;;18.33;13.80;;;;;;;14.15;92.82;96595.13;4998963;28;20046;-80
2022/05/01 09:45:11;;;;;;;18.07;13.97;;;;;;;13.70;92.66;96593.97;5011524;28;20061;-78
2022/05/01 09:47:47;;;;;;;18.23;13.47;;;;;;;13.90;93.90;96600.50;5004420;28;20052;-79
2022/05/01 09:50:14;;;;;;;22.23;14.57;;;;;;;13.85;97.68;96594.09;5010554;28;20172;-77
2022/05/01 09:52:59;;;;;;;19.20;14.83;;;;;;;13.59;92.48;96592.53;4975387;28;20855;-79
2022/05/01 09:55:26;;;;;;;24.97;14.97;;;;;;;13.94;96.19;96601.00;5013827;28;20037;-79
2022/05/01 09:58:07;;;;;;;18.80;14.53;;;;;;;13.79;90.05;96592.97;5012862;28;20121;-80
2022/05/01 10:00:35;;;;;;;20.57;14.40;;;;;;;13.57;93.66;96604.25;5006120;28;20026;-80
2022/05/01 10:03:21;;;;;;;16.90;13.33;;;;;;;13.57;97.85;96596.31;5014953;28;20038;-82
2022/05/01 10:05:48;;;;;;;20.57;13.90;;;;;;;13.61;100.00;96598.44;5001080;28;20404;-80
2022/05/01 10:08:17;;;;;;;18.57;13.43;;;;;;;13.60;100.00;96594.16;5015260;28;20851;-80
2022/05/01 10:10:44;;;;;;;16.73;13.10;;;;;;;13.84;98.02;96593.25;5018634;28;20041;-81
2022/05/01 10:13:13;;;;;;;18.10;13.80;;;;;;;13.23;100.00;96601.81;5017125;28;20104;-79
2022/05/01 10:15:40;;;;;;;20.87;14.87;;;;;;;13.06;100.00;96601.00;5015538;28;20040;-81
2022/05/01 10:18:07;;;;;;;18.70;14.53;;;;;;;12.77;100.00;96604.94;5014641;28;20542;-78
2022/05/01 10:20:34;;;;;;;17.90;13.80;;;;;;;13.06;100.00;96601.81;5012363;28;20045;-79
2022/05/01 10:23:03;;;;;;;19.93;15.00;;;;;;;12.90;100.00;96602.63;5011009;28;20045;-79
2022/05/01 10:25:35;;;;;;;25.87;20.73;;;;;;;13.41;100.00;96587.47;5009689;28;20042;-79
2022/05/01 10:28:22;;;;;;;23.37;15.87;;;;;;;13.26;100.00;96596.22;4993813;28;20104;-80
2022/05/01 10:34:18;;;;;;;19.80;14.57;;;;;;;13.47;100.00;96591.22;5010741;28;20041;-80
2022/05/01 10:37:02;;;;;;;19.47;14.80;;;;;;;13.31;100.00;96591.25;5014936;28;20049;-80
2022/05/01 10:39:33;;;;;;;21.47;15.47;;;;;;;13.64;100.00;96590.19;5013226;28;20279;-80
2022/05/01 10:42:00;;;;;;;18.67;14.33;;;;;;;13.05;100.00;96588.78;5029771;28;20199;-80
2022/05/01 10:44:30;;;;;;;19.50;14.68;;;;;;;13.79;99.50;96579.75;4996867;28;20403;-80
2022/05/01 10:47:12;;;;;;;19.07;13.40;;;;;;;14.04;100.00;96579.63;5032300;28;20403;-82
2022/05/01 10:49:43;;;;;;;18.20;14.43;;;;;;;13.82;100.00;96582.06;5010316;28;20034;-79
2022/05/01 10:52:23;;;;;;;18.93;13.43;;;;;;;13.94;100.00;96574.56;5033866;28;20375;-79
2022/05/01 10:55:03;;;;;;;18.38;13.50;;;;;;;13.84;100.00;96566.81;5007064;28;20065;-80
2022/05/01 10:57:30;;;;;;;17.80;15.00;;;;;;;13.78;97.10;96567.53;5028551;28;20053;-79
2022/05/01 11:00:11;;;;;;;19.57;14.10;;;;;;;13.99;97.56;96568.78;5015284;28;20065;-79
2022/05/01 11:02:38;;;;;;;27.60;22.35;;;;;;;14.00;99.42;96562.47;5024130;28;20041;-80
2022/05/01 11:05:07;;;;;;;19.87;16.20;;;;;;;13.68;100.00;96566.88;5013382;28;20046;-79
2022/05/01 11:07:39;;;;;;;19.52;14.45;;;;;;;13.99;98.66;96561.66;5006185;28;20097;-80
2022/05/01 11:10:08;;;;;;;19.83;13.80;;;;;;;14.17;98.09;96561.41;5013680;28;20456;-80
2022/05/01 11:12:35;;;;;;;17.08;13.88;;;;;;;14.36;93.47;96558.31;5013696;28;20033;-80
2022/05/01 11:15:09;;;;;;;16.75;13.07;;;;;;;14.71;89.80;96555.28;5016308;28;20041;-80
2022/05/01 11:17:36;;;;;;;16.63;12.55;;;;;;;14.80;88.73;96559.53;4997971;28;20034;-80
2022/05/01 11:20:13;;;;;;;15.27;12.02;;;;;;;14.59;86.46;96554.91;5019118;28;20037;-79
2022/05/01 11:22:40;;;;;;;16.35;12.45;;;;;;;15.08;82.73;96544.72;5030893;28;20049;-79
2022/05/01 11:25:11;;;;;;;16.52;13.68;;;;;;;14.53;88.57;96548.47;5041520;28;20348;-80
2022/05/01 11:27:51;;;;;;;20.02;14.80;;;;;;;14.14;85.14;96559.09;5015593;28;20034;-80
2022/05/01 11:30:32;;;;;;;21.63;13.85;;;;;;;14.36;87.42;96546.91;5015276;28;20030;-80
2022/05/01 11:33:08;;;;;;;16.55;11.45;;;;;;;14.02;85.47;96549.91;5009250;28;20040;-80
2022/05/01 11:35:57;;;;;;;17.45;12.45;;;;;;;14.53;82.22;96550.31;5003975;28;20546;-80
2022/05/01 11:38:29;;;;;;;13.93;11.23;;;;;;;14.75;81.19;96536.22;5003894;28;20060;-80
2022/05/01 11:40:57;;;;;;;14.40;11.57;;;;;;;14.43;80.91;96539.91;5015284;28;20041;-79